sensor_id;sensor_type;location;lat;lon;timestamp;pressure;altitude;pressure_sealevel;temperature;humidity
59375;BME280;45172;55.006;73.460;2023-06-19T00:01:22;98807.78;;;14.32;nan
59375;BME280;45172;55.006;73.460;2023-06-19T00:03:48;98805.13;;;14.32;nan
59375;BME280;45172;55.006;73.460;2023-06-19T00:06:14;98753.38;;;14.06;nan
59375;BME280;45172;55.006;73.460;2023-06-19T00:08:40;98776.00;;;14.26;nan
59375;BME280;45172;55.006;73.460;2023-06-19T00:11:09;98752.34;;;14.12;nan
59375;BME280;45172;55.006;73.460;2023-06-19T00:13:36;98765.41;;;14.23;nan
59375;BME280;45172;55.006;73.460;2023-06-19T00:16:02;98742.38;;;14.20;nan
59375;BME280;45172;55.006;73.460;2023-06-19T00:18:28;98735.44;;;14.15;nan
59375;BME280;45172;55.006;73.460;2023-06-19T00:20:54;98735.28;;;14.21;nan
59375;BME280;45172;55.006;73.460;2023-06-19T00:23:22;98714.81;;;14.23;nan
59375;BME280;45172;55.006;73.460;2023-06-19T00:25:48;98710.44;;;14.20;nan
59375;BME280;45172;55.006;73.460;2023-06-19T00:28:14;98690.09;;;14.18;nan
59375;BME280;45172;55.006;73.460;2023-06-19T00:30:45;98706.75;;;14.26;nan
59375;BME280;45172;55.006;73.460;2023-06-19T00:33:11;98698.03;;;14.19;nan
59375;BME280;45172;55.006;73.460;2023-06-19T00:35:37;98720.00;;;14.28;nan
59375;BME280;45172;55.006;73.460;2023-06-19T00:38:05;98703.28;;;14.22;nan
59375;BME280;45172;55.006;73.460;2023-06-19T00:40:32;98701.47;;;14.23;nan
59375;BME280;45172;55.006;73.460;2023-06-19T00:42:59;98704.81;;;14.31;nan
59375;BME280;45172;55.006;73.460;2023-06-19T00:45:26;98709.34;;;14.28;nan
59375;BME280;45172;55.006;73.460;2023-06-19T00:47:54;98722.38;;;14.40;nan
59375;BME280;45172;55.006;73.460;2023-06-19T00:50:23;98690.00;;;14.21;nan
59375;BME280;45172;55.006;73.460;2023-06-19T00:52:49;98731.03;;;14.48;nan
59375;BME280;45172;55.006;73.460;2023-06-19T00:55:17;98731.03;;;14.48;nan
59375;BME280;45172;55.006;73.460;2023-06-19T00:57:44;98723.97;;;14.46;nan
59375;BME280;45172;55.006;73.460;2023-06-19T01:00:11;98721.28;;;14.47;nan
59375;BME280;45172;55.006;73.460;2023-06-19T01:02:38;98740.69;;;14.52;nan
59375;BME280;45172;55.006;73.460;2023-06-19T01:05:05;98739.78;;;14.54;nan
59375;BME280;45172;55.006;73.460;2023-06-19T01:07:52;98732.72;;;14.52;nan
59375;BME280;45172;55.006;73.460;2023-06-19T01:10:29;98713.28;;;14.47;nan
59375;BME280;45172;55.006;73.460;2023-06-19T01:13:02;98696.53;;;14.44;nan
59375;BME280;45172;55.006;73.460;2023-06-19T01:15:32;98696.25;;;14.53;nan
59375;BME280;45172;55.006;73.460;2023-06-19T01:17:58;98691.84;;;14.52;nan
59375;BME280;45172;55.006;73.460;2023-06-19T01:20:27;98686.34;;;14.60;nan
59375;BME280;45172;55.006;73.460;2023-06-19T01:22:54;98672.91;;;14.63;nan
59375;BME280;45172;55.006;73.460;2023-06-19T01:25:23;98645.66;;;14.51;nan
59375;BME280;45172;55.006;73.460;2023-06-19T01:27:50;98663.03;;;14.66;nan
59375;BME280;45172;55.006;73.460;2023-06-19T01:30:16;98655.00;;;14.68;nan
59375;BME280;45172;55.006;73.460;2023-06-19T01:35:36;98602.84;;;14.59;nan
59375;BME280;45172;55.006;73.460;2023-06-19T01:38:02;98619.09;;;14.82;nan
59375;BME280;45172;55.006;73.460;2023-06-19T01:40:30;98591.56;;;14.83;nan
59375;BME280;45172;55.006;73.460;2023-06-19T01:42:58;98586.97;;;14.86;nan
59375;BME280;45172;55.006;73.460;2023-06-19T01:45:30;98562.22;;;14.83;nan
59375;BME280;45172;55.006;73.460;2023-06-19T01:47:57;98576.97;;;14.95;nan
59375;BME280;45172;55.006;73.460;2023-06-19T01:50:23;98559.09;;;14.98;nan
59375;BME280;45172;55.006;73.460;2023-06-19T01:52:50;98534.94;;;15.03;nan
59375;BME280;45172;55.006;73.460;2023-06-19T01:55:16;98537.38;;;15.09;nan
59375;BME280;45172;55.006;73.460;2023-06-19T01:57:43;98520.34;;;15.15;nan
59375;BME280;45172;55.006;73.460;2023-06-19T02:00:09;98508.72;;;15.17;nan
59375;BME280;45172;55.006;73.460;2023-06-19T02:02:36;98506.84;;;15.19;nan
59375;BME280;45172;55.006;73.460;2023-06-19T02:05:02;98496.19;;;15.19;nan
59375;BME280;45172;55.006;73.460;2023-06-19T02:07:29;98507.19;;;15.36;nan
59375;BME280;45172;55.006;73.460;2023-06-19T02:09:55;98499.91;;;15.41;nan
59375;BME280;45172;55.006;73.460;2023-06-19T02:12:21;98489.47;;;15.60;nan
59375;BME280;45172;55.006;73.460;2023-06-19T02:14:49;98471.16;;;15.76;nan
59375;BME280;45172;55.006;73.460;2023-06-19T02:17:15;98473.47;;;15.85;nan
59375;BME280;45172;55.006;73.460;2023-06-19T02:19:42;98475.66;;;15.99;nan
59375;BME280;45172;55.006;73.460;2023-06-19T02:22:08;98494.78;;;16.12;nan
59375;BME280;45172;55.006;73.460;2023-06-19T02:24:34;98453.31;;;16.02;nan
59375;BME280;45172;55.006;73.460;2023-06-19T02:27:02;98460.69;;;16.43;nan
59375;BME280;45172;55.006;73.460;2023-06-19T02:29:29;98432.38;;;16.61;nan
59375;BME280;45172;55.006;73.460;2023-06-19T02:31:55;98431.97;;;16.93;nan
59375;BME280;45172;55.006;73.460;2023-06-19T02:34:22;98432.06;;;17.14;nan
59375;BME280;45172;55.006;73.460;2023-06-19T02:36:50;98426.41;;;17.21;nan
59375;BME280;45172;55.006;73.460;2023-06-19T02:39:16;98396.16;;;16.97;nan
59375;BME280;45172;55.006;73.460;2023-06-19T02:41:44;98418.38;;;16.99;nan
59375;BME280;45172;55.006;73.460;2023-06-19T02:44:13;98405.56;;;16.85;nan
59375;BME280;45172;55.006;73.460;2023-06-19T02:46:39;98393.06;;;17.08;nan
59375;BME280;45172;55.006;73.460;2023-06-19T02:49:05;98407.06;;;17.35;nan
59375;BME280;45172;55.006;73.460;2023-06-19T02:51:32;98423.31;;;17.51;nan
59375;BME280;45172;55.006;73.460;2023-06-19T02:53:57;98409.25;;;17.67;nan
59375;BME280;45172;55.006;73.460;2023-06-19T02:56:25;98397.03;;;17.80;nan
59375;BME280;45172;55.006;73.460;2023-06-19T02:58:52;98396.94;;;17.84;nan
59375;BME280;45172;55.006;73.460;2023-06-19T03:01:19;98410.66;;;18.16;nan
59375;BME280;45172;55.006;73.460;2023-06-19T03:03:47;98388.63;;;18.28;nan
59375;BME280;45172;55.006;73.460;2023-06-19T03:06:14;98387.81;;;18.65;nan
59375;BME280;45172;55.006;73.460;2023-06-19T03:08:40;98403.31;;;18.95;nan
59375;BME280;45172;55.006;73.460;2023-06-19T03:11:06;98385.50;;;18.94;nan
59375;BME280;45172;55.006;73.460;2023-06-19T03:16:12;98384.03;;;19.06;nan
59375;BME280;45172;55.006;73.460;2023-06-19T03:18:38;98394.03;;;19.20;nan
59375;BME280;45172;55.006;73.460;2023-06-19T03:21:04;98396.19;;;19.30;nan
59375;BME280;45172;55.006;73.460;2023-06-19T03:23:30;98396.25;;;19.29;nan
59375;BME280;45172;55.006;73.460;2023-06-19T03:25:56;98383.56;;;19.15;nan
59375;BME280;45172;55.006;73.460;2023-06-19T03:28:23;98393.25;;;19.17;nan
59375;BME280;45172;55.006;73.460;2023-06-19T03:30:50;98380.72;;;19.18;nan
59375;BME280;45172;55.006;73.460;2023-06-19T11:28:27;97345.13;;;22.01;100.00
59375;BME280;45172;55.006;73.460;2023-06-19T11:31:02;97319.88;;;21.90;100.00
59375;BME280;45172;55.006;73.460;2023-06-19T11:33:29;97296.75;;;21.88;100.00
59375;BME280;45172;55.006;73.460;2023-06-19T11:36:00;97273.22;;;21.79;100.00
59375;BME280;45172;55.006;73.460;2023-06-19T11:38:27;97223.38;;;21.61;100.00
59375;BME280;45172;55.006;73.460;2023-06-19T11:40:55;97199.97;;;21.62;100.00
59375;BME280;45172;55.006;73.460;2023-06-19T11:43:31;97160.22;;;21.54;100.00
59375;BME280;45172;55.006;73.460;2023-06-19T11:46:05;97144.56;;;21.48;100.00
59375;BME280;45172;55.006;73.460;2023-06-19T11:48:31;97117.38;;;21.51;100.00
59375;BME280;45172;55.006;73.460;2023-06-19T11:50:57;97080.53;;;21.40;100.00
59375;BME280;45172;55.006;73.460;2023-06-19T11:53:24;97077.47;;;21.56;100.00
59375;BME280;45172;55.006;73.460;2023-06-19T11:55:51;97062.03;;;21.58;100.00
59375;BME280;45172;55.006;73.460;2023-06-19T11:58:17;97041.09;;;21.62;100.00
59375;BME280;45172;55.006;73.460;2023-06-19T12:00:47;97042.81;;;21.74;100.00
59375;BME280;45172;55.006;73.460;2023-06-19T12:03:13;97057.94;;;21.87;100.00
59375;BME280;45172;55.006;73.460;2023-06-19T12:05:39;97034.03;;;21.94;100.00
59375;BME280;45172;55.006;73.460;2023-06-19T12:08:06;97035.06;;;22.02;100.00
59375;BME280;45172;55.006;73.460;2023-06-19T12:22:33;97095.81;;;22.39;100.00
59375;BME280;45172;55.006;73.460;2023-06-19T12:33:36;97086.34;;;22.66;100.00
59375;BME280;45172;55.006;73.460;2023-06-19T12:36:11;97098.09;;;22.87;100.00
59375;BME280;45172;55.006;73.460;2023-06-19T12:38:40;97092.63;;;22.98;100.00
59375;BME280;45172;55.006;73.460;2023-06-19T12:41:08;97111.28;;;23.11;100.00
59375;BME280;45172;55.006;73.460;2023-06-19T12:43:34;97130.50;;;23.18;100.00
59375;BME280;45172;55.006;73.460;2023-06-19T12:46:01;97138.75;;;23.16;100.00
59375;BME280;45172;55.006;73.460;2023-06-19T12:48:27;97156.06;;;23.13;100.00
59375;BME280;45172;55.006;73.460;2023-06-19T12:50:53;97149.63;;;23.05;100.00
59375;BME280;45172;55.006;73.460;2023-06-19T12:53:19;97163.84;;;23.07;98.82
59375;BME280;45172;55.006;73.460;2023-06-19T12:55:47;97161.94;;;22.97;94.83
59375;BME280;45172;55.006;73.460;2023-06-19T12:58:13;97204.88;;;23.01;93.07
59375;BME280;45172;55.006;73.460;2023-06-19T13:00:39;97206.22;;;22.95;91.88
59375;BME280;45172;55.006;73.460;2023-06-19T13:03:05;97184.50;;;22.96;90.04
59375;BME280;45172;55.006;73.460;2023-06-19T13:05:31;97161.34;;;22.94;88.41
59375;BME280;45172;55.006;73.460;2023-06-19T13:07:57;97159.81;;;23.01;89.10
59375;BME280;45172;55.006;73.460;2023-06-19T13:10:23;97150.09;;;23.10;86.46
59375;BME280;45172;55.006;73.460;2023-06-19T13:12:49;97178.78;;;23.32;87.13
59375;BME280;45172;55.006;73.460;2023-06-19T13:15:15;97179.69;;;23.43;82.13
59375;BME280;45172;55.006;73.460;2023-06-19T13:17:41;97153.63;;;23.32;79.61
59375;BME280;45172;55.006;73.460;2023-06-19T13:20:08;97175.19;;;23.53;79.32
59375;BME280;45172;55.006;73.460;2023-06-19T13:22:35;97147.28;;;23.52;78.12
59375;BME280;45172;55.006;73.460;2023-06-19T13:25:02;97113.06;;;23.53;76.06
59375;BME280;45172;55.006;73.460;2023-06-19T13:27:29;97068.25;;;23.50;76.17
59375;BME280;45172;55.006;73.460;2023-06-19T13:29:55;97038.84;;;23.47;77.51
59375;BME280;45172;55.006;73.460;2023-06-19T13:32:20;97060.16;;;23.50;76.72
59375;BME280;45172;55.006;73.460;2023-06-19T13:34:48;97086.88;;;23.44;77.32
59375;BME280;45172;55.006;73.460;2023-06-19T13:37:14;97094.84;;;23.45;77.11
59375;BME280;45172;55.006;73.460;2023-06-19T13:39:40;97069.09;;;23.41;77.01
59375;BME280;45172;55.006;73.460;2023-06-19T13:42:06;97047.03;;;23.36;75.36
59375;BME280;45172;55.006;73.460;2023-06-19T13:44:32;97055.81;;;23.28;74.51
59375;BME280;45172;55.006;73.460;2023-06-19T14:43:46;96879.75;;;21.70;85.12
59375;BME280;45172;55.006;73.460;2023-06-19T14:46:12;96895.66;;;21.73;87.36
59375;BME280;45172;55.006;73.460;2023-06-19T14:48:38;96928.25;;;21.92;85.50
59375;BME280;45172;55.006;73.460;2023-06-19T14:51:04;96920.53;;;21.87;83.35
59375;BME280;45172;55.006;73.460;2023-06-19T14:53:31;96911.16;;;21.81;83.69
59375;BME280;45172;55.006;73.460;2023-06-19T14:55:57;96903.06;;;21.81;82.93
59375;BME280;45172;55.006;73.460;2023-06-19T14:58:24;96893.75;;;21.85;84.65
59375;BME280;45172;55.006;73.460;2023-06-19T15:00:55;96876.53;;;21.76;84.34
59375;BME280;45172;55.006;73.460;2023-06-19T15:03:21;96879.75;;;21.70;85.42
59375;BME280;45172;55.006;73.460;2023-06-19T15:05:48;96865.94;;;21.63;84.49
59375;BME280;45172;55.006;73.460;2023-06-19T15:08:14;96867.91;;;21.61;84.20
59375;BME280;45172;55.006;73.460;2023-06-19T15:10:40;96879.91;;;21.57;85.53
59375;BME280;45172;55.006;73.460;2023-06-19T15:13:07;96898.03;;;21.55;86.60
59375;BME280;45172;55.006;73.460;2023-06-19T15:15:33;96890.47;;;21.49;85.56
59375;BME280;45172;55.006;73.460;2023-06-19T15:17:59;96891.72;;;21.45;85.24
59375;BME280;45172;55.006;73.460;2023-06-19T15:20:26;96907.16;;;21.43;84.15
59375;BME280;45172;55.006;73.460;2023-06-19T15:23:10;96896.88;;;21.37;82.68
59375;BME280;45172;55.006;73.460;2023-06-19T15:25:36;96915.09;;;21.44;81.80
59375;BME280;45172;55.006;73.460;2023-06-19T15:28:02;96910.44;;;21.46;82.47
59375;BME280;45172;55.006;73.460;2023-06-19T15:30:28;96917.53;;;21.47;80.36
59375;BME280;45172;55.006;73.460;2023-06-19T15:32:54;96933.16;;;21.54;80.37
59375;BME280;45172;55.006;73.460;2023-06-19T15:35:21;96873.31;;;21.29;78.97
59375;BME280;45172;55.006;73.460;2023-06-19T15:37:48;96911.38;;;21.57;78.52
59375;BME280;45172;55.006;73.460;2023-06-19T15:40:14;96908.41;;;21.60;79.57
59375;BME280;45172;55.006;73.460;2023-06-19T15:42:40;96898.63;;;21.59;79.16
59375;BME280;45172;55.006;73.460;2023-06-19T15:45:07;96898.13;;;21.65;80.27
59375;BME280;45172;55.006;73.460;2023-06-19T15:47:35;96896.25;;;21.66;78.52
59375;BME280;45172;55.006;73.460;2023-06-19T15:50:01;96893.84;;;21.62;78.70
59375;BME280;45172;55.006;73.460;2023-06-19T15:52:28;96897.53;;;21.61;79.77
59375;BME280;45172;55.006;73.460;2023-06-19T15:54:56;96879.91;;;21.57;79.63
59375;BME280;45172;55.006;73.460;2023-06-19T15:57:22;96877.50;;;21.54;80.40
59375;BME280;45172;55.006;73.460;2023-06-19T15:59:48;96880.19;;;21.54;80.67
59375;BME280;45172;55.006;73.460;2023-06-19T16:02:19;96874.91;;;21.53;81.15
59375;BME280;45172;55.006;73.460;2023-06-19T16:04:46;96836.88;;;21.25;81.59
59375;BME280;45172;55.006;73.460;2023-06-19T16:07:12;96858.09;;;21.39;81.81
59375;BME280;45172;55.006;73.460;2023-06-19T16:09:38;96846.03;;;21.33;81.64
59375;BME280;45172;55.006;73.460;2023-06-19T16:12:07;96815.16;;;21.16;81.89
59375;BME280;45172;55.006;73.460;2023-06-19T16:14:33;96845.31;;;21.31;81.23
59375;BME280;45172;55.006;73.460;2023-06-19T16:17:17;96837.34;;;21.30;80.80
59375;BME280;45172;55.006;73.460;2023-06-19T16:19:45;96808.78;;;21.17;79.89
59375;BME280;45172;55.006;73.460;2023-06-19T16:22:11;96838.41;;;21.39;80.33
59375;BME280;45172;55.006;73.460;2023-06-19T16:24:37;96835.34;;;21.43;79.86
59375;BME280;45172;55.006;73.460;2023-06-19T16:27:05;96834.06;;;21.47;80.89
59375;BME280;45172;55.006;73.460;2023-06-19T16:29:31;96838.63;;;21.47;80.03
59375;BME280;45172;55.006;73.460;2023-06-19T16:31:57;96831.53;;;21.46;79.85
59375;BME280;45172;55.006;73.460;2023-06-19T16:34:24;96822.84;;;21.42;79.95
59375;BME280;45172;55.006;73.460;2023-06-19T16:36:50;96816.72;;;21.40;80.25
59375;BME280;45172;55.006;73.460;2023-06-19T16:39:16;96814.91;;;21.41;79.21
59375;BME280;45172;55.006;73.460;2023-06-19T16:41:44;96810.63;;;21.38;78.92
59375;BME280;45172;55.006;73.460;2023-06-19T16:44:11;96807.22;;;21.36;79.25
59375;BME280;45172;55.006;73.460;2023-06-19T16:46:37;96792.31;;;21.32;79.44
59375;BME280;45172;55.006;73.460;2023-06-19T16:49:04;96781.53;;;21.32;79.41
59375;BME280;45172;55.006;73.460;2023-06-19T16:51:30;96748.16;;;21.13;79.40
59375;BME280;45172;55.006;73.460;2023-06-19T16:53:56;96761.53;;;21.25;80.10
59375;BME280;45172;55.006;73.460;2023-06-19T16:56:22;96771.06;;;21.29;78.81
59375;BME280;45172;55.006;73.460;2023-06-19T16:58:48;96762.25;;;21.27;78.82
59375;BME280;45172;55.006;73.460;2023-06-19T17:01:14;96751.03;;;21.21;79.97
59375;BME280;45172;55.006;73.460;2023-06-19T17:03:40;96748.06;;;21.25;79.72
59375;BME280;45172;55.006;73.460;2023-06-19T17:06:06;96734.88;;;21.21;79.79
59375;BME280;45172;55.006;73.460;2023-06-19T17:08:32;96730.50;;;21.20;79.74
59375;BME280;45172;55.006;73.460;2023-06-19T17:10:58;96735.16;;;21.18;79.42
59375;BME280;45172;55.006;73.460;2023-06-19T17:13:24;96715.16;;;21.11;79.72
59375;BME280;45172;55.006;73.460;2023-06-19T17:15:51;96713.03;;;21.15;78.88
59375;BME280;45172;55.006;73.460;2023-06-19T17:18:16;96668.69;;;20.88;79.49
59375;BME280;45172;55.006;73.460;2023-06-19T17:20:42;96716.69;;;21.14;79.17
59375;BME280;45172;55.006;73.460;2023-06-19T17:23:08;96726.63;;;21.13;79.77
59375;BME280;45172;55.006;73.460;2023-06-19T17:25:35;96723.47;;;21.08;78.98
59375;BME280;45172;55.006;73.460;2023-06-19T17:28:01;96712.97;;;21.05;78.94
59375;BME280;45172;55.006;73.460;2023-06-19T17:30:28;96716.09;;;21.10;79.09
59375;BME280;45172;55.006;73.460;2023-06-19T17:32:54;96690.53;;;20.94;78.57
59375;BME280;45172;55.006;73.460;2023-06-19T17:35:20;96706.09;;;21.12;77.31
59375;BME280;45172;55.006;73.460;2023-06-19T17:37:46;96687.19;;;21.02;76.66
59375;BME280;45172;55.006;73.460;2023-06-19T17:40:12;96693.66;;;21.21;76.35
59375;BME280;45172;55.006;73.460;2023-06-19T17:42:42;96655.22;;;21.09;74.75
59375;BME280;45172;55.006;73.460;2023-06-19T17:45:09;96669.94;;;21.36;74.09
59375;BME280;45172;55.006;73.460;2023-06-19T17:47:35;96661.75;;;21.38;73.98
59375;BME280;45172;55.006;73.460;2023-06-19T17:50:01;96665.19;;;21.49;73.54
59375;BME280;45172;55.006;73.460;2023-06-19T17:52:27;96628.31;;;21.40;72.56
59375;BME280;45172;55.006;73.460;2023-06-19T17:54:53;96651.22;;;21.66;72.41
59375;BME280;45172;55.006;73.460;2023-06-19T17:57:20;96625.09;;;21.56;71.81
59375;BME280;45172;55.006;73.460;2023-06-19T17:59:46;96632.13;;;21.79;71.99
59375;BME280;45172;55.006;73.460;2023-06-19T18:02:12;96615.09;;;21.68;71.87
59375;BME280;45172;55.006;73.460;2023-06-19T18:04:39;96629.19;;;21.82;72.62
59375;BME280;45172;55.006;73.460;2023-06-19T18:07:05;96602.50;;;21.69;72.10
59375;BME280;45172;55.006;73.460;2023-06-19T18:09:32;96619.53;;;21.79;72.61
59375;BME280;45172;55.006;73.460;2023-06-19T18:11:58;96630.31;;;21.79;74.29
59375;BME280;45172;55.006;73.460;2023-06-19T18:14:24;96582.03;;;21.56;73.77
59375;BME280;45172;55.006;73.460;2023-06-19T18:16:54;96603.59;;;21.66;73.89
59375;BME280;45172;55.006;73.460;2023-06-19T18:19:25;96604.69;;;21.54;74.40
59375;BME280;45172;55.006;73.460;2023-06-19T18:21:51;96597.78;;;21.61;74.01
59375;BME280;45172;55.006;73.460;2023-06-19T18:24:17;96590.25;;;21.55;75.02
59375;BME280;45172;55.006;73.460;2023-06-19T18:26:43;96577.59;;;21.45;74.80
59375;BME280;45172;55.006;73.460;2023-06-19T18:29:09;96564.41;;;21.32;75.23
59375;BME280;45172;55.006;73.460;2023-06-19T18:31:35;96587.50;;;21.35;75.80
59375;BME280;45172;55.006;73.460;2023-06-19T18:34:01;96584.66;;;21.27;76.24
59375;BME280;45172;55.006;73.460;2023-06-19T18:36:27;96579.34;;;21.15;76.70
59375;BME280;45172;55.006;73.460;2023-06-19T18:38:53;96581.31;;;21.13;77.05
59375;BME280;45172;55.006;73.460;2023-06-19T18:41:19;96569.41;;;21.06;77.50
59375;BME280;45172;55.006;73.460;2023-06-19T18:43:45;96575.31;;;21.00;77.91
59375;BME280;45172;55.006;73.460;2023-06-19T18:46:13;96580.38;;;20.93;78.24
59375;BME280;45172;55.006;73.460;2023-06-19T18:48:39;96558.84;;;20.72;78.77
59375;BME280;45172;55.006;73.460;2023-06-19T18:51:07;96579.72;;;20.79;79.12
59375;BME280;45172;55.006;73.460;2023-06-19T18:53:33;96584.38;;;20.77;79.40
59375;BME280;45172;55.006;73.460;2023-06-19T18:55:59;96571.59;;;20.70;79.51
59375;BME280;45172;55.006;73.460;2023-06-19T18:58:25;96569.75;;;20.70;80.62
59375;BME280;45172;55.006;73.460;2023-06-19T19:00:51;96542.91;;;20.49;80.68
59375;BME280;45172;55.006;73.460;2023-06-19T19:03:17;96571.69;;;20.58;81.35
59375;BME280;45172;55.006;73.460;2023-06-19T19:05:43;96558.56;;;20.44;82.15
59375;BME280;45172;55.006;73.460;2023-06-19T19:08:09;96578.22;;;20.44;82.93
59375;BME280;45172;55.006;73.460;2023-06-19T19:10:36;96574.09;;;20.40;83.80
59375;BME280;45172;55.006;73.460;2023-06-19T19:13:03;96563.41;;;20.29;84.70
59375;BME280;45172;55.006;73.460;2023-06-19T19:15:29;96553.50;;;20.08;85.65
59375;BME280;45172;55.006;73.460;2023-06-19T19:17:55;96583.50;;;20.13;86.80
59375;BME280;45172;55.006;73.460;2023-06-19T19:20:22;96568.44;;;19.89;88.78
59375;BME280;45172;55.006;73.460;2023-06-19T19:22:49;96598.63;;;19.81;90.23
59375;BME280;45172;55.006;73.460;2023-06-19T19:25:14;96600.25;;;19.61;92.18
59375;BME280;45172;55.006;73.460;2023-06-19T19:27:41;96610.75;;;19.41;94.05
59375;BME280;45172;55.006;73.460;2023-06-19T19:30:08;96615.91;;;19.22;95.49
59375;BME280;45172;55.006;73.460;2023-06-19T19:36:52;96600.41;;;18.44;99.93
59375;BME280;45172;55.006;73.460;2023-06-19T19:47:48;96666.84;;;17.90;100.00
